RYR784B GMFO-LFBO
Flight info
| Callsign | RYR784B |
|---|---|
| Flight time | N/A |
| Altitude | 36000 |
| Route | DIGEX DCT AMR N860 VLC L34 CASIM N608 GIROM DCT ASPET |
| Aircraft | B738/M-SDE3FGILRWY/SB1 |
Departure
| Time | N/A |
|---|---|
| Airport | Oujda Angads Airport (GMFO) |
Arrival
| Time | 2026-05-03 21:17 |
|---|---|
| Airport | Toulouse-Blagnac Airport (LFBO) |
| Time | Latitude | Longitude | Altitude | Speed | Heading |
|---|---|---|---|---|---|
| 2026-05-03 20:15 | 38.12184 | -1.41542 | 35995 ft | 436 kts | 27° |
| 2026-05-03 20:15 | 38.17550 | -1.37947 | 36005 ft | 435 kts | 27° |
| 2026-05-03 20:16 | 38.22900 | -1.34358 | 36001 ft | 434 kts | 27° |
| 2026-05-03 20:16 | 38.28236 | -1.30772 | 35998 ft | 433 kts | 27° |
| 2026-05-03 20:17 | 38.33563 | -1.27187 | 36000 ft | 433 kts | 27° |
| 2026-05-03 20:17 | 38.38880 | -1.23601 | 35999 ft | 432 kts | 27° |
| 2026-05-03 20:18 | 38.44155 | -1.20038 | 35996 ft | 432 kts | 27° |
| 2026-05-03 20:18 | 38.49476 | -1.16438 | 36006 ft | 433 kts | 27° |
| 2026-05-03 20:19 | 38.54798 | -1.12831 | 36001 ft | 434 kts | 27° |
| 2026-05-03 20:19 | 38.60134 | -1.09209 | 36002 ft | 434 kts | 28° |
| 2026-05-03 20:20 | 38.65474 | -1.05576 | 36001 ft | 435 kts | 28° |
| 2026-05-03 20:20 | 38.70826 | -1.01931 | 36002 ft | 436 kts | 28° |
| 2026-05-03 20:21 | 38.75656 | -0.98636 | 35999 ft | 437 kts | 28° |
| 2026-05-03 20:21 | 38.81018 | -0.94974 | 36000 ft | 437 kts | 28° |
| 2026-05-03 20:22 | 38.86388 | -0.91300 | 36002 ft | 437 kts | 28° |
| 2026-05-03 20:22 | 38.91760 | -0.87617 | 36002 ft | 438 kts | 28° |
| 2026-05-03 20:23 | 38.97125 | -0.83932 | 36001 ft | 437 kts | 28° |
| 2026-05-03 20:23 | 39.02483 | -0.80246 | 36003 ft | 437 kts | 28° |
| 2026-05-03 20:24 | 39.07838 | -0.76556 | 35998 ft | 436 kts | 28° |
| 2026-05-03 20:24 | 39.13148 | -0.72897 | 36005 ft | 435 kts | 28° |
| 2026-05-03 20:25 | 39.18476 | -0.69220 | 35995 ft | 434 kts | 28° |
| 2026-05-03 20:25 | 39.23790 | -0.65546 | 35997 ft | 433 kts | 28° |
| 2026-05-03 20:26 | 39.29089 | -0.61875 | 36002 ft | 432 kts | 28° |
| 2026-05-03 20:26 | 39.34374 | -0.58207 | 36002 ft | 431 kts | 28° |
| 2026-05-03 20:27 | 39.39651 | -0.54538 | 36002 ft | 430 kts | 28° |
| 2026-05-03 20:27 | 39.44920 | -0.50869 | 36002 ft | 430 kts | 28° |
| 2026-05-03 20:28 | 39.50151 | -0.47126 | 35999 ft | 430 kts | 31° |
| 2026-05-03 20:28 | 39.55196 | -0.42968 | 36000 ft | 430 kts | 33° |
| 2026-05-03 20:29 | 39.60197 | -0.38719 | 36005 ft | 430 kts | 33° |
| 2026-05-03 20:29 | 39.65216 | -0.34492 | 36001 ft | 430 kts | 32° |
| 2026-05-03 20:30 | 39.69402 | -0.30988 | 36002 ft | 431 kts | 32° |
| 2026-05-03 20:30 | 39.74446 | -0.26771 | 36002 ft | 431 kts | 32° |
| 2026-05-03 20:31 | 39.79497 | -0.22542 | 35999 ft | 432 kts | 32° |
| 2026-05-03 20:31 | 39.84549 | -0.18304 | 36003 ft | 432 kts | 32° |
| 2026-05-03 20:32 | 39.89597 | -0.14060 | 35999 ft | 432 kts | 32° |
| 2026-05-03 20:32 | 39.94647 | -0.09807 | 36002 ft | 432 kts | 32° |
| 2026-05-03 20:33 | 39.99692 | -0.05552 | 36001 ft | 432 kts | 33° |
| 2026-05-03 20:33 | 40.04728 | -0.01295 | 36001 ft | 432 kts | 33° |
| 2026-05-03 20:34 | 40.09686 | 0.02902 | 36001 ft | 432 kts | 33° |
| 2026-05-03 20:34 | 40.14727 | 0.07179 | 36004 ft | 432 kts | 33° |
| 2026-05-03 20:35 | 40.19771 | 0.11464 | 36000 ft | 432 kts | 33° |
| 2026-05-03 20:35 | 40.25060 | 0.15153 | 35995 ft | 432 kts | 18° |
| 2026-05-03 20:36 | 40.30833 | 0.17298 | 36001 ft | 432 kts | 15° |
| 2026-05-03 20:36 | 40.36630 | 0.19369 | 35999 ft | 432 kts | 15° |
| 2026-05-03 20:37 | 40.42413 | 0.21507 | 36000 ft | 432 kts | 15° |
| 2026-05-03 20:37 | 40.48193 | 0.23677 | 36003 ft | 432 kts | 15° |
| 2026-05-03 20:38 | 40.53939 | 0.25837 | 35998 ft | 432 kts | 15° |
| 2026-05-03 20:38 | 40.59725 | 0.28023 | 35999 ft | 432 kts | 16° |
| 2026-05-03 20:39 | 40.65505 | 0.30229 | 36000 ft | 432 kts | 16° |
| 2026-05-03 20:39 | 40.71283 | 0.32438 | 36003 ft | 433 kts | 16° |
| 2026-05-03 20:40 | 40.77066 | 0.34651 | 36000 ft | 433 kts | 16° |
| 2026-05-03 20:40 | 40.82858 | 0.36870 | 35994 ft | 434 kts | 16° |
| 2026-05-03 20:41 | 40.88654 | 0.39095 | 35994 ft | 434 kts | 16° |
| 2026-05-03 20:41 | 40.94452 | 0.41320 | 36001 ft | 434 kts | 16° |
| 2026-05-03 20:42 | 41.00244 | 0.43545 | 36002 ft | 434 kts | 16° |
| 2026-05-03 20:42 | 41.06041 | 0.45749 | 35996 ft | 433 kts | 15° |
| 2026-05-03 20:43 | 41.11837 | 0.47915 | 35997 ft | 433 kts | 15° |
| 2026-05-03 20:43 | 41.17616 | 0.50144 | 35998 ft | 432 kts | 16° |
| 2026-05-03 20:44 | 41.23378 | 0.52390 | 36006 ft | 431 kts | 16° |
| 2026-05-03 20:44 | 41.29135 | 0.54629 | 36001 ft | 431 kts | 16° |
| 2026-05-03 20:45 | 41.34884 | 0.56864 | 35997 ft | 430 kts | 16° |
| 2026-05-03 20:45 | 41.40629 | 0.59093 | 36004 ft | 430 kts | 16° |
| 2026-05-03 20:46 | 41.46372 | 0.61322 | 36000 ft | 430 kts | 16° |
| 2026-05-03 20:46 | 41.52111 | 0.63555 | 35951 ft | 428 kts | 16° |
| 2026-05-03 20:47 | 41.57844 | 0.65617 | 35943 ft | 427 kts | 12° |
| 2026-05-03 20:47 | 41.63613 | 0.67181 | 35713 ft | 416 kts | 11° |
| 2026-05-03 20:47 | 41.66376 | 0.67947 | 35469 ft | 408 kts | 11° |
| 2026-05-03 20:48 | 41.69141 | 0.68718 | 35142 ft | 404 kts | 11° |
| 2026-05-03 20:48 | 41.71879 | 0.69480 | 34761 ft | 401 kts | 11° |
| 2026-05-03 20:48 | 41.74603 | 0.70238 | 34393 ft | 398 kts | 11° |
| 2026-05-03 20:48 | 41.77306 | 0.70991 | 34015 ft | 396 kts | 11° |
| 2026-05-03 20:49 | 41.79994 | 0.71740 | 33654 ft | 393 kts | 11° |
| 2026-05-03 20:49 | 41.82664 | 0.72486 | 33289 ft | 391 kts | 11° |
| 2026-05-03 20:49 | 41.85320 | 0.73229 | 32933 ft | 388 kts | 11° |
| 2026-05-03 20:49 | 41.87953 | 0.73973 | 32601 ft | 385 kts | 12° |
| 2026-05-03 20:50 | 41.90568 | 0.74716 | 32248 ft | 383 kts | 12° |
| 2026-05-03 20:50 | 41.93170 | 0.75457 | 31894 ft | 381 kts | 12° |
| 2026-05-03 20:50 | 41.95756 | 0.76195 | 31545 ft | 379 kts | 12° |
| 2026-05-03 20:50 | 41.98331 | 0.76929 | 31193 ft | 377 kts | 12° |
| 2026-05-03 20:51 | 42.00884 | 0.77657 | 30852 ft | 375 kts | 12° |
| 2026-05-03 20:51 | 42.03462 | 0.78393 | 30497 ft | 373 kts | 12° |
| 2026-05-03 20:51 | 42.06000 | 0.79117 | 30153 ft | 371 kts | 12° |
| 2026-05-03 20:51 | 42.08516 | 0.79836 | 29822 ft | 369 kts | 12° |
| 2026-05-03 20:52 | 42.11007 | 0.80549 | 29493 ft | 375 kts | 12° |
| 2026-05-03 20:52 | 42.13599 | 0.81290 | 29137 ft | 384 kts | 12° |
| 2026-05-03 20:52 | 42.16207 | 0.82037 | 28750 ft | 382 kts | 12° |
| 2026-05-03 20:52 | 42.18796 | 0.82780 | 28376 ft | 379 kts | 12° |
| 2026-05-03 20:53 | 42.21364 | 0.83517 | 28013 ft | 376 kts | 12° |
| 2026-05-03 20:53 | 42.23911 | 0.84248 | 27654 ft | 373 kts | 12° |
| 2026-05-03 20:53 | 42.26435 | 0.84974 | 27310 ft | 369 kts | 12° |
| 2026-05-03 20:53 | 42.28938 | 0.85694 | 26968 ft | 366 kts | 12° |
| 2026-05-03 20:54 | 42.31418 | 0.86408 | 26623 ft | 363 kts | 12° |
| 2026-05-03 20:54 | 42.36326 | 0.87822 | 25955 ft | 357 kts | 12° |
| 2026-05-03 20:54 | 42.38749 | 0.88522 | 25616 ft | 355 kts | 12° |
| 2026-05-03 20:55 | 42.41152 | 0.89216 | 25289 ft | 352 kts | 12° |
| 2026-05-03 20:55 | 42.43539 | 0.89905 | 24972 ft | 349 kts | 12° |
| 2026-05-03 20:55 | 42.45907 | 0.90589 | 24660 ft | 348 kts | 12° |
| 2026-05-03 20:55 | 42.48271 | 0.91268 | 24416 ft | 350 kts | 12° |
| 2026-05-03 20:56 | 42.50685 | 0.91961 | 24187 ft | 359 kts | 12° |
| 2026-05-03 20:56 | 42.53127 | 0.92662 | 23920 ft | 357 kts | 12° |
| 2026-05-03 20:56 | 42.55551 | 0.93359 | 23571 ft | 355 kts | 12° |
| 2026-05-03 20:56 | 42.57954 | 0.94051 | 23224 ft | 352 kts | 12° |
| 2026-05-03 20:57 | 42.60346 | 0.94740 | 22871 ft | 350 kts | 12° |
| 2026-05-03 20:57 | 42.62717 | 0.95424 | 22525 ft | 347 kts | 12° |
| 2026-05-03 20:57 | 42.65075 | 0.96104 | 22183 ft | 345 kts | 12° |
| 2026-05-03 20:57 | 42.67413 | 0.96780 | 21839 ft | 342 kts | 12° |
| 2026-05-03 20:58 | 42.69739 | 0.97452 | 21493 ft | 341 kts | 12° |
| 2026-05-03 20:58 | 42.72049 | 0.98120 | 21157 ft | 339 kts | 12° |
| 2026-05-03 20:58 | 42.74347 | 0.98785 | 20819 ft | 337 kts | 12° |
| 2026-05-03 20:58 | 42.76630 | 0.99437 | 20481 ft | 334 kts | 9° |
| 2026-05-03 20:59 | 42.78934 | 0.99688 | 20165 ft | 331 kts | 358° |
| 2026-05-03 20:59 | 42.81222 | 0.99526 | 19859 ft | 328 kts | 356° |
| 2026-05-03 20:59 | 42.83494 | 0.99320 | 19526 ft | 326 kts | 356° |
| 2026-05-03 20:59 | 42.85755 | 0.99116 | 19195 ft | 325 kts | 356° |
| 2026-05-03 21:00 | 42.88003 | 0.98925 | 18862 ft | 323 kts | 356° |
| 2026-05-03 21:00 | 42.88728 | 0.98866 | 18755 ft | 322 kts | 356° |
| 2026-05-03 21:00 | 42.92456 | 0.98573 | 18216 ft | 318 kts | 356° |
| 2026-05-03 21:00 | 42.94662 | 0.98405 | 17895 ft | 316 kts | 356° |
| 2026-05-03 21:01 | 42.96850 | 0.98239 | 17577 ft | 314 kts | 356° |
| 2026-05-03 21:01 | 42.99028 | 0.98074 | 17264 ft | 312 kts | 356° |
| 2026-05-03 21:01 | 43.01185 | 0.98022 | 16950 ft | 310 kts | 2° |
| 2026-05-03 21:01 | 43.03327 | 0.98245 | 16660 ft | 308 kts | 5° |
| 2026-05-03 21:02 | 43.05453 | 0.98548 | 16353 ft | 306 kts | 6° |
| 2026-05-03 21:02 | 43.07531 | 0.98856 | 16057 ft | 304 kts | 6° |
| 2026-05-03 21:02 | 43.09623 | 0.99158 | 15758 ft | 301 kts | 5° |
| 2026-05-03 21:02 | 43.11702 | 0.99450 | 15464 ft | 299 kts | 5° |
| 2026-05-03 21:03 | 43.13766 | 0.99731 | 15169 ft | 297 kts | 5° |
| 2026-05-03 21:03 | 43.15809 | 1.00003 | 14882 ft | 295 kts | 5° |
| 2026-05-03 21:03 | 43.17785 | 1.00264 | 14601 ft | 293 kts | 5° |
| 2026-05-03 21:03 | 43.19810 | 1.00528 | 14313 ft | 291 kts | 5° |
| 2026-05-03 21:04 | 43.21823 | 1.00789 | 14025 ft | 289 kts | 5° |
| 2026-05-03 21:04 | 43.23822 | 1.01048 | 13742 ft | 288 kts | 5° |
| 2026-05-03 21:04 | 43.25808 | 1.01304 | 13454 ft | 286 kts | 5° |
| 2026-05-03 21:04 | 43.27788 | 1.01559 | 13170 ft | 284 kts | 5° |
| 2026-05-03 21:05 | 43.29749 | 1.01812 | 12885 ft | 282 kts | 5° |
| 2026-05-03 21:05 | 43.31700 | 1.02064 | 12604 ft | 281 kts | 5° |
| 2026-05-03 21:05 | 43.33638 | 1.02314 | 12322 ft | 279 kts | 5° |
| 2026-05-03 21:05 | 43.35567 | 1.02563 | 12039 ft | 278 kts | 5° |
| 2026-05-03 21:06 | 43.37485 | 1.02811 | 11761 ft | 276 kts | 5° |
| 2026-05-03 21:06 | 43.39393 | 1.03057 | 11481 ft | 275 kts | 5° |
| 2026-05-03 21:06 | 43.41292 | 1.03303 | 11202 ft | 273 kts | 5° |
| 2026-05-03 21:06 | 43.43183 | 1.03548 | 10919 ft | 272 kts | 5° |
| 2026-05-03 21:07 | 43.45065 | 1.03791 | 10646 ft | 271 kts | 5° |
| 2026-05-03 21:07 | 43.46938 | 1.04034 | 10369 ft | 270 kts | 5° |
| 2026-05-03 21:07 | 43.48802 | 1.04275 | 10118 ft | 267 kts | 5° |
| 2026-05-03 21:07 | 43.50631 | 1.04513 | 10014 ft | 263 kts | 5° |
| 2026-05-03 21:08 | 43.52475 | 1.04752 | 9747 ft | 270 kts | 5° |
| 2026-05-03 21:08 | 43.54361 | 1.04997 | 9478 ft | 276 kts | 5° |
| 2026-05-03 21:08 | 43.56277 | 1.05246 | 9188 ft | 276 kts | 5° |
| 2026-05-03 21:08 | 43.58182 | 1.05493 | 8887 ft | 274 kts | 5° |
| 2026-05-03 21:09 | 43.60077 | 1.05740 | 8612 ft | 273 kts | 5° |
| 2026-05-03 21:09 | 43.61960 | 1.05985 | 8326 ft | 271 kts | 5° |
| 2026-05-03 21:09 | 43.63835 | 1.06229 | 8041 ft | 270 kts | 5° |
| 2026-05-03 21:09 | 43.65705 | 1.06469 | 7685 ft | 271 kts | 5° |
| 2026-05-03 21:10 | 43.67585 | 1.06707 | 7334 ft | 272 kts | 5° |
| 2026-05-03 21:10 | 43.69468 | 1.06944 | 6977 ft | 272 kts | 5° |
| 2026-05-03 21:10 | 43.71360 | 1.07184 | 6614 ft | 273 kts | 5° |
| 2026-05-03 21:10 | 43.73255 | 1.07424 | 6250 ft | 274 kts | 5° |
| 2026-05-03 21:11 | 43.74842 | 1.07660 | 5938 ft | 274 kts | 11° |
| 2026-05-03 21:11 | 43.76559 | 1.08758 | 5555 ft | 276 kts | 41° |
| 2026-05-03 21:11 | 43.77671 | 1.10872 | 5209 ft | 270 kts | 66° |
| 2026-05-03 21:11 | 43.78261 | 1.13299 | 4862 ft | 262 kts | 73° |
| 2026-05-03 21:12 | 43.78773 | 1.15683 | 4507 ft | 255 kts | 73° |
| 2026-05-03 21:12 | 43.79190 | 1.18035 | 4154 ft | 249 kts | 87° |
| 2026-05-03 21:12 | 43.78737 | 1.20251 | 3874 ft | 237 kts | 128° |
| 2026-05-03 21:12 | 43.77482 | 1.21581 | 3616 ft | 222 kts | 151° |
| 2026-05-03 21:13 | 43.76203 | 1.22665 | 3327 ft | 210 kts | 147° |
| 2026-05-03 21:13 | 43.75022 | 1.23769 | 3066 ft | 199 kts | 146° |
| 2026-05-03 21:13 | 43.73889 | 1.24793 | 2800 ft | 191 kts | 147° |
| 2026-05-03 21:13 | 43.72834 | 1.25831 | 2566 ft | 182 kts | 144° |
| 2026-05-03 21:14 | 43.71842 | 1.26860 | 2328 ft | 176 kts | 143° |
| 2026-05-03 21:14 | 43.70878 | 1.27863 | 2094 ft | 171 kts | 143° |
| 2026-05-03 21:14 | 43.69959 | 1.28821 | 1905 ft | 158 kts | 143° |
| 2026-05-03 21:14 | 43.69106 | 1.29708 | 1677 ft | 150 kts | 143° |
| 2026-05-03 21:15 | 43.68299 | 1.30547 | 1503 ft | 137 kts | 143° |
| 2026-05-03 21:15 | 43.67562 | 1.31313 | 1299 ft | 129 kts | 143° |
| 2026-05-03 21:15 | 43.66849 | 1.32055 | 1140 ft | 129 kts | 143° |
| 2026-05-03 21:15 | 43.66126 | 1.32808 | 965 ft | 131 kts | 143° |
| 2026-05-03 21:16 | 43.65400 | 1.33563 | 796 ft | 130 kts | 143° |
| 2026-05-03 21:16 | 43.64681 | 1.34312 | 619 ft | 129 kts | 143° |
| 2026-05-03 21:16 | 43.64206 | 1.34806 | 513 ft | 129 kts | 143° |
| 2026-05-03 21:16 | 43.63559 | 1.35479 | 493 ft | 98 kts | 141° |
| 2026-05-03 21:17 | 43.63160 | 1.35895 | 486 ft | 44 kts | 144° |
| 2026-05-03 21:17 | 43.62970 | 1.36092 | 487 ft | 29 kts | 143° |
| 2026-05-03 21:17 | 43.62812 | 1.36257 | 490 ft | 28 kts | 143° |
| 2026-05-03 21:17 | 43.62664 | 1.36410 | 493 ft | 26 kts | 143° |
| 2026-05-03 21:18 | 43.62528 | 1.36555 | 486 ft | 23 kts | 142° |
| 2026-05-03 21:18 | 43.62446 | 1.36689 | 489 ft | 17 kts | 92° |
| 2026-05-03 21:18 | 43.62460 | 1.36852 | 485 ft | 17 kts | 84° |
| 2026-05-03 21:18 | 43.62472 | 1.37008 | 493 ft | 16 kts | 82° |
| 2026-05-03 21:19 | 43.62484 | 1.37140 | 490 ft | 11 kts | 82° |
| 2026-05-03 21:19 | 43.62507 | 1.37239 | 489 ft | 11 kts | 57° |
| 2026-05-03 21:19 | 43.62570 | 1.37281 | 489 ft | 11 kts | 347° |
| 2026-05-03 21:19 | 43.62630 | 1.37225 | 493 ft | 10 kts | 323° |
| 2026-05-03 21:20 | 43.62687 | 1.37164 | 493 ft | 10 kts | 322° |
| 2026-05-03 21:20 | 43.62744 | 1.37104 | 493 ft | 10 kts | 323° |
| 2026-05-03 21:20 | 43.62800 | 1.37046 | 489 ft | 10 kts | 323° |
| 2026-05-03 21:20 | 43.62855 | 1.36990 | 493 ft | 10 kts | 323° |
| 2026-05-03 21:21 | 43.62908 | 1.36935 | 486 ft | 10 kts | 324° |
| 2026-05-03 21:21 | 43.62971 | 1.36871 | 490 ft | 12 kts | 324° |
| 2026-05-03 21:21 | 43.63036 | 1.36801 | 490 ft | 12 kts | 323° |
| 2026-05-03 21:21 | 43.63100 | 1.36735 | 488 ft | 11 kts | 323° |
| 2026-05-03 21:22 | 43.63163 | 1.36671 | 485 ft | 11 kts | 322° |
| 2026-05-03 21:22 | 43.63229 | 1.36627 | 490 ft | 11 kts | 4° |
| 2026-05-03 21:22 | 43.63278 | 1.36697 | 488 ft | 11 kts | 72° |
| 2026-05-03 21:22 | 43.63278 | 1.36782 | 485 ft | 9 kts | 113° |
| 2026-05-03 21:23 | 43.63257 | 1.36846 | 488 ft | 6 kts | 114° |
| 2026-05-03 21:23 | 43.63244 | 1.36888 | 486 ft | 4 kts | 115° |
| 2026-05-03 21:23 | 43.63234 | 1.36917 | 488 ft | 1 kts | 114° |